Time;durP1;ratioP1;P1;durP2;ratioP2;P2;SDS_P1;SDS_P2;PMS_P1;PMS_P2;Temp;Humidity;BMP_temperature;BMP_pressure;BME280_temperature;BME280_humidity;BME280_pressure;Samples;Min_cycle;Max_cycle;Signal;HPM_P1;HPM_P2
2023/12/17 00:00:08;;;;;;;;;;;11.40;99.90;;;;;;7334935;19;109295;-74
2023/12/17 00:02:36;;;;;;;;;;;11.40;99.90;;;;;;7343081;19;108597;-73
2023/12/17 00:05:03;;;;;;;;;;;11.50;99.90;;;;;;7337151;19;110221;-75
2023/12/17 00:07:30;;;;;;;;;;;11.50;99.90;;;;;;7341118;19;109666;-71
2023/12/17 00:09:58;;;;;;;;;;;11.50;99.90;;;;;;7339698;19;110829;-69
2023/12/17 00:12:25;;;;;;;;;;;11.40;99.90;;;;;;7338345;19;108481;-71
2023/12/17 00:14:52;;;;;;;;;;;11.40;99.90;;;;;;7335893;19;110321;-70
2023/12/17 00:17:21;;;;;;;;;;;11.40;99.90;;;;;;7338531;19;109276;-69
2023/12/17 00:19:48;;;;;;;;;;;11.40;99.90;;;;;;7336647;19;108930;-72
2023/12/17 00:22:16;;;;;;;;;;;11.40;99.90;;;;;;7336151;19;109392;-73
2023/12/17 00:24:43;;;;;;;;;;;11.40;99.90;;;;;;7341781;19;109118;-69
2023/12/17 00:27:14;;;;;;;;;;;11.40;99.90;;;;;;7335932;19;109066;-69
2023/12/17 00:29:41;;;;;;;;;;;11.40;99.90;;;;;;7337737;19;110291;-68
2023/12/17 00:32:09;;;;;;;;;;;11.40;99.90;;;;;;7336506;19;109349;-69
2023/12/17 00:34:36;;;;;;;;;;;11.40;99.90;;;;;;7336835;19;108802;-69
2023/12/17 00:37:03;;;;;;;;;;;11.40;99.90;;;;;;7334502;19;111312;-68
2023/12/17 00:39:30;;;;;;;;;;;11.40;99.90;;;;;;7337240;19;109317;-69
2023/12/17 00:41:58;;;;;;;;;;;11.30;99.90;;;;;;7337157;19;109726;-69
2023/12/17 00:44:25;;;;;;;;;;;11.40;99.90;;;;;;7337420;19;111065;-69
2023/12/17 00:46:52;;;;;;;;;;;11.40;99.90;;;;;;7340667;19;110437;-69
2023/12/17 00:49:19;;;;;;;;;;;11.40;99.90;;;;;;7337546;19;110235;-70
2023/12/17 00:51:46;;;;;;;;;;;11.30;99.90;;;;;;7332801;19;108986;-68
2023/12/17 00:54:14;;;;;;;;;;;11.40;99.90;;;;;;7336275;19;109154;-69
2023/12/17 00:56:41;;;;;;;;;;;11.40;99.90;;;;;;7337839;19;109608;-69
2023/12/17 00:59:08;;;;;;;;;;;11.40;99.90;;;;;;7333925;19;109228;-69
2023/12/17 01:01:35;;;;;;;;;;;11.30;99.90;;;;;;7335087;19;109416;-69
2023/12/17 01:04:03;;;;;;;;;;;11.30;99.90;;;;;;7338530;19;110665;-71
2023/12/17 01:06:30;;;;;;;;;;;11.40;99.90;;;;;;7332822;19;108369;-74
2023/12/17 01:08:57;;;;;;;;;;;11.40;99.90;;;;;;7339071;19;109313;-72
2023/12/17 01:11:25;;;;;;;;;;;11.40;99.90;;;;;;7335391;19;108665;-73
2023/12/17 01:13:54;;;;;;;;;;;11.30;99.90;;;;;;7334097;19;109132;-73
2023/12/17 01:16:22;;;;;;;;;;;11.30;99.90;;;;;;7325840;19;110361;-72
2023/12/17 01:21:33;;;;;;;;;;;11.30;99.90;;;;;;7338823;19;109071;-73
2023/12/17 01:24:00;;;;;;;;;;;11.30;99.90;;;;;;7352098;19;110128;-84
2023/12/17 01:26:29;;;;;;;;;;;11.30;99.90;;;;;;7367737;19;108041;-84
2023/12/17 01:28:56;;;;;;;;;;;11.30;99.90;;;;;;7349400;19;109306;-84
2023/12/17 01:31:24;;;;;;;;;;;11.30;99.90;;;;;;7338974;19;108894;-84
2023/12/17 01:33:51;;;;;;;;;;;11.30;99.90;;;;;;7341102;19;109757;-85
2023/12/17 01:36:18;;;;;;;;;;;11.30;99.90;;;;;;7340889;19;111835;-84
2023/12/17 01:38:46;;;;;;;;;;;11.30;99.90;;;;;;7335446;19;109890;-84
2023/12/17 01:41:13;;;;;;;;;;;11.30;99.90;;;;;;7339454;19;109724;-84
2023/12/17 01:43:40;;;;;;;;;;;11.30;99.90;;;;;;7341372;19;110503;-84
2023/12/17 01:46:07;;;;;;;;;;;11.30;99.90;;;;;;7341931;19;108410;-84
2023/12/17 01:48:35;;;;;;;;;;;11.30;99.90;;;;;;7340554;19;108692;-84
2023/12/17 01:51:03;;;;;;;;;;;11.30;99.90;;;;;;7346406;19;110588;-84
2023/12/17 01:53:30;;;;;;;;;;;11.30;99.90;;;;;;7340565;19;109429;-84
2023/12/17 01:55:58;;;;;;;;;;;11.30;99.90;;;;;;7339106;19;109526;-84
2023/12/17 01:58:26;;;;;;;;;;;11.30;99.90;;;;;;7339667;19;108359;-84
2023/12/17 02:00:55;;;;;;;;;;;11.30;99.90;;;;;;7339166;19;110374;-84
2023/12/17 02:03:22;;;;;;;;;;;11.30;99.90;;;;;;7336764;19;112315;-84
2023/12/17 02:05:49;;;;;;;;;;;11.30;99.90;;;;;;7337682;19;109343;-84
2023/12/17 02:08:16;;;;;;;;;;;11.30;99.90;;;;;;7339276;19;109457;-85
2023/12/17 02:10:43;;;;;;;;;;;11.30;99.90;;;;;;7337397;19;110375;-84
2023/12/17 02:13:11;;;;;;;;;;;11.30;99.90;;;;;;7343813;19;110023;-85
2023/12/17 02:15:38;;;;;;;;;;;11.30;99.90;;;;;;7338967;19;110900;-85
2023/12/17 02:18:05;;;;;;;;;;;11.30;99.90;;;;;;7335794;19;108468;-84
2023/12/17 02:20:34;;;;;;;;;;;11.30;99.90;;;;;;7339486;19;108765;-84
2023/12/17 02:23:02;;;;;;;;;;;11.30;99.90;;;;;;7334851;19;115749;-84
2023/12/17 02:25:29;;;;;;;;;;;11.20;99.90;;;;;;7336215;19;109068;-84
2023/12/17 02:27:59;;;;;;;;;;;11.20;99.90;;;;;;7334923;19;111591;-84
2023/12/17 02:30:26;;;;;;;;;;;11.20;99.90;;;;;;7335146;19;110127;-84
2023/12/17 02:32:54;;;;;;;;;;;11.20;99.90;;;;;;7332717;19;108738;-86
2023/12/17 02:35:21;;;;;;;;;;;11.20;99.90;;;;;;7341524;19;109211;-84
2023/12/17 02:37:49;;;;;;;;;;;11.20;99.90;;;;;;7331916;19;108787;-84
2023/12/17 02:40:16;;;;;;;;;;;11.30;99.90;;;;;;7335947;19;109342;-84
2023/12/17 02:42:44;;;;;;;;;;;11.20;99.90;;;;;;7332813;19;111764;-84
2023/12/17 02:45:12;;;;;;;;;;;11.20;99.90;;;;;;7329439;19;109998;-84
2023/12/17 02:47:39;;;;;;;;;;;11.20;99.90;;;;;;7334072;19;114976;-84
2023/12/17 02:50:07;;;;;;;;;;;11.20;99.90;;;;;;7334234;19;111715;-83
2023/12/17 02:52:34;;;;;;;;;;;11.20;99.90;;;;;;7334560;19;109105;-84
2023/12/17 02:55:01;;;;;;;;;;;11.20;99.90;;;;;;7336515;19;108747;-84
2023/12/17 02:57:29;;;;;;;;;;;11.20;99.90;;;;;;7337585;19;112508;-83
2023/12/17 02:59:56;;;;;;;;;;;11.20;99.90;;;;;;7334141;19;110261;-84
2023/12/17 03:02:23;;;;;;;;;;;11.20;99.90;;;;;;7332466;19;109837;-84
2023/12/17 03:04:50;;;;;;;;;;;11.20;99.90;;;;;;7334627;19;109247;-83
2023/12/17 03:07:18;;;;;;;;;;;11.20;99.90;;;;;;7332922;19;109734;-84
2023/12/17 03:09:45;;;;;;;;;;;11.20;99.90;;;;;;7334562;19;109855;-84
2023/12/17 03:12:12;;;;;;;;;;;11.20;99.90;;;;;;7335666;19;109097;-83
2023/12/17 03:25:44;;;;;;;;;;;11.20;99.90;;;;;;7322722;19;108884;-68
2023/12/17 03:28:11;;;;;;;;;;;11.20;99.90;;;;;;7329138;19;108611;-69
2023/12/17 03:30:38;;;;;;;;;;;11.20;99.90;;;;;;7330885;19;110140;-68
2023/12/17 03:33:05;;;;;;;;;;;11.20;99.90;;;;;;7329170;19;109424;-68
2023/12/17 03:35:33;;;;;;;;;;;11.10;99.90;;;;;;7329474;19;110806;-68
2023/12/17 03:38:00;;;;;;;;;;;11.20;99.90;;;;;;7332407;19;112131;-68
2023/12/17 03:40:27;;;;;;;;;;;11.20;99.90;;;;;;7338571;19;108748;-68
2023/12/17 03:42:54;;;;;;;;;;;11.10;99.90;;;;;;7326555;19;110057;-68
2023/12/17 03:45:21;;;;;;;;;;;11.20;99.90;;;;;;7329925;19;110957;-68
2023/12/17 03:47:49;;;;;;;;;;;11.10;99.90;;;;;;7333110;19;108321;-68
2023/12/17 03:50:17;;;;;;;;;;;11.20;99.90;;;;;;7331648;19;110248;-68
2023/12/17 03:52:45;;;;;;;;;;;11.10;99.90;;;;;;7331107;19;108624;-68
2023/12/17 03:55:13;;;;;;;;;;;11.10;99.90;;;;;;7331955;19;110489;-68
2023/12/17 03:57:40;;;;;;;;;;;11.20;99.90;;;;;;7331443;19;109264;-68
2023/12/17 04:00:10;;;;;;;;;;;11.10;99.90;;;;;;7329420;19;109841;-68
2023/12/17 04:02:37;;;;;;;;;;;11.10;99.90;;;;;;7337665;19;113744;-68
2023/12/17 04:05:05;;;;;;;;;;;11.10;99.90;;;;;;7331393;19;108983;-68
2023/12/17 04:07:32;;;;;;;;;;;11.00;99.90;;;;;;7332300;19;109183;-68
2023/12/17 04:10:03;;;;;;;;;;;11.10;99.90;;;;;;7330437;19;110345;-68
2023/12/17 04:12:30;;;;;;;;;;;11.10;99.90;;;;;;7332025;19;108336;-68
2023/12/17 04:14:57;;;;;;;;;;;11.10;99.90;;;;;;7325509;19;109016;-70
2023/12/17 04:17:24;;;;;;;;;;;11.10;99.90;;;;;;7328234;19;109418;-68
2023/12/17 04:19:51;;;;;;;;;;;11.10;99.90;;;;;;7330609;19;110545;-68
2023/12/17 04:22:19;;;;;;;;;;;11.00;99.90;;;;;;7331322;19;110273;-68
2023/12/17 04:24:46;;;;;;;;;;;11.10;99.90;;;;;;7334859;19;110633;-69
2023/12/17 04:27:13;;;;;;;;;;;11.00;99.90;;;;;;7331087;19;109247;-68
2023/12/17 04:29:41;;;;;;;;;;;11.00;99.90;;;;;;7333869;19;111840;-68
2023/12/17 04:32:08;;;;;;;;;;;11.00;99.90;;;;;;7336169;19;110146;-69
2023/12/17 04:34:35;;;;;;;;;;;11.00;99.90;;;;;;7332002;19;110536;-68
2023/12/17 04:37:03;;;;;;;;;;;11.00;99.90;;;;;;7337246;19;109282;-68
2023/12/17 04:39:30;;;;;;;;;;;11.00;99.90;;;;;;7333281;19;108495;-68
2023/12/17 04:41:58;;;;;;;;;;;11.00;99.90;;;;;;7335600;19;109552;-69
2023/12/17 04:44:25;;;;;;;;;;;11.00;99.90;;;;;;7334945;19;109179;-69
2023/12/17 04:46:52;;;;;;;;;;;10.90;99.90;;;;;;7340830;19;108518;-69
2023/12/17 04:49:19;;;;;;;;;;;11.00;99.90;;;;;;7332489;19;110014;-71
2023/12/17 04:51:47;;;;;;;;;;;10.90;99.90;;;;;;7338915;19;110131;-69
2023/12/17 04:54:15;;;;;;;;;;;10.90;99.90;;;;;;7337463;19;109958;-69
2023/12/17 04:56:42;;;;;;;;;;;10.90;99.90;;;;;;7336366;19;110611;-68
2023/12/17 04:59:09;;;;;;;;;;;10.90;99.90;;;;;;7338535;19;109035;-68
2023/12/17 05:01:36;;;;;;;;;;;10.90;99.90;;;;;;7334808;19;108695;-68
2023/12/17 05:04:04;;;;;;;;;;;10.90;99.90;;;;;;7337861;19;109617;-69
2023/12/17 05:06:31;;;;;;;;;;;10.80;99.90;;;;;;7336367;19;110626;-68
2023/12/17 05:08:58;;;;;;;;;;;10.80;99.90;;;;;;7337888;19;108836;-69
2023/12/17 05:11:25;;;;;;;;;;;10.80;99.90;;;;;;7337009;19;109359;-68
2023/12/17 05:13:52;;;;;;;;;;;10.80;99.90;;;;;;7338342;19;108624;-69
2023/12/17 05:16:19;;;;;;;;;;;10.80;99.90;;;;;;7336448;19;109123;-71
2023/12/17 05:18:46;;;;;;;;;;;10.80;99.90;;;;;;7335003;19;109780;-69
2023/12/17 05:21:14;;;;;;;;;;;10.80;99.90;;;;;;7337529;19;110348;-69
2023/12/17 05:23:41;;;;;;;;;;;10.80;99.90;;;;;;7331110;19;109674;-68
2023/12/17 05:26:08;;;;;;;;;;;10.80;99.90;;;;;;7336270;19;110510;-68
2023/12/17 05:28:37;;;;;;;;;;;10.80;99.90;;;;;;7333891;19;110603;-68
2023/12/17 05:31:04;;;;;;;;;;;10.80;99.90;;;;;;7337951;19;110265;-71
2023/12/17 05:33:31;;;;;;;;;;;10.80;99.90;;;;;;7336726;19;108814;-70
2023/12/17 05:35:59;;;;;;;;;;;10.70;99.90;;;;;;7333395;19;110149;-69
2023/12/17 05:38:29;;;;;;;;;;;10.70;99.90;;;;;;7333241;19;108934;-68
2023/12/17 05:40:56;;;;;;;;;;;10.70;99.90;;;;;;7329268;19;108864;-68
2023/12/17 05:43:24;;;;;;;;;;;10.70;99.90;;;;;;7334577;19;109072;-70
2023/12/17 05:45:51;;;;;;;;;;;10.70;99.90;;;;;;7333863;19;108956;-69
2023/12/17 05:48:24;;;;;;;;;;;10.70;99.90;;;;;;7336317;19;110264;-69
2023/12/17 05:50:52;;;;;;;;;;;10.70;99.90;;;;;;7341325;19;109653;-69
2023/12/17 05:53:19;;;;;;;;;;;10.60;99.90;;;;;;7335021;19;108994;-68
2023/12/17 05:55:55;;;;;;;;;;;10.60;99.90;;;;;;7335216;19;110776;-68
2023/12/17 05:58:23;;;;;;;;;;;10.60;99.90;;;;;;7333980;19;110561;-69
2023/12/17 06:00:50;;;;;;;;;;;10.70;99.90;;;;;;7334161;19;111138;-69
2023/12/17 06:03:17;;;;;;;;;;;10.60;99.90;;;;;;7336285;19;109450;-72
2023/12/17 06:05:45;;;;;;;;;;;10.60;99.90;;;;;;7334922;19;109614;-68
2023/12/17 06:08:12;;;;;;;;;;;10.60;99.90;;;;;;7335266;19;109648;-69
2023/12/17 06:10:40;;;;;;;;;;;10.60;99.90;;;;;;7335625;19;109647;-68
2023/12/17 06:13:07;;;;;;;;;;;10.60;99.90;;;;;;7340513;19;109634;-69
2023/12/17 06:15:34;;;;;;;;;;;10.60;99.90;;;;;;7336710;19;109283;-69
2023/12/17 06:18:01;;;;;;;;;;;10.60;99.90;;;;;;7335892;19;108896;-69
2023/12/17 06:20:30;;;;;;;;;;;10.50;99.90;;;;;;7333245;19;111085;-69
2023/12/17 06:22:57;;;;;;;;;;;10.50;99.90;;;;;;7335706;19;110212;-70
2023/12/17 06:25:24;;;;;;;;;;;10.50;99.90;;;;;;7332448;19;108815;-76
2023/12/17 06:27:52;;;;;;;;;;;10.50;99.90;;;;;;7332466;19;108978;-71
2023/12/17 06:30:20;;;;;;;;;;;10.40;99.90;;;;;;7331077;19;110452;-69
2023/12/17 06:32:47;;;;;;;;;;;10.50;99.90;;;;;;7332805;19;110766;-69
2023/12/17 06:35:14;;;;;;;;;;;10.50;99.90;;;;;;7337887;19;108824;-71
2023/12/17 06:37:42;;;;;;;;;;;10.40;99.90;;;;;;7339806;19;107666;-92
2023/12/17 06:48:27;;;;;;;;;;;10.30;99.90;;;;;;7332708;19;113186;-68
2023/12/17 06:50:54;;;;;;;;;;;10.30;99.90;;;;;;7332704;19;110492;-68
2023/12/17 06:53:21;;;;;;;;;;;10.30;99.90;;;;;;7333307;19;109315;-71
2023/12/17 06:55:48;;;;;;;;;;;10.30;99.90;;;;;;7335184;19;108986;-69
2023/12/17 06:58:15;;;;;;;;;;;10.30;99.90;;;;;;7334009;19;110049;-68
2023/12/17 07:00:42;;;;;;;;;;;10.30;99.90;;;;;;7332530;19;109159;-69
2023/12/17 07:03:10;;;;;;;;;;;10.20;99.90;;;;;;7331170;19;110210;-69
2023/12/17 07:05:38;;;;;;;;;;;10.30;99.90;;;;;;7332123;19;109781;-68
2023/12/17 07:08:05;;;;;;;;;;;10.20;99.90;;;;;;7332106;19;109917;-68
2023/12/17 07:10:33;;;;;;;;;;;10.20;99.90;;;;;;7334109;19;109879;-68
2023/12/17 07:13:04;;;;;;;;;;;10.20;99.90;;;;;;7330410;19;118655;-68
2023/12/17 07:15:32;;;;;;;;;;;10.10;99.90;;;;;;7331210;19;110117;-68
2023/12/17 07:17:59;;;;;;;;;;;10.10;99.90;;;;;;7332450;19;110188;-68
2023/12/17 07:20:26;;;;;;;;;;;10.10;99.90;;;;;;7336913;19;110194;-68
2023/12/17 07:22:53;;;;;;;;;;;10.10;99.90;;;;;;7336388;19;110103;-68
2023/12/17 07:25:20;;;;;;;;;;;10.00;99.90;;;;;;7330185;19;110136;-68
2023/12/17 07:27:48;;;;;;;;;;;10.10;99.90;;;;;;7330908;19;110060;-68
2023/12/17 07:30:19;;;;;;;;;;;10.00;99.90;;;;;;7331408;19;110362;-68
2023/12/17 07:32:46;;;;;;;;;;;10.00;99.90;;;;;;7331749;19;110202;-70
2023/12/17 07:35:14;;;;;;;;;;;10.00;99.90;;;;;;7327207;19;109673;-70
2023/12/17 07:37:42;;;;;;;;;;;10.00;99.90;;;;;;7329249;19;113348;-70
2023/12/17 07:40:09;;;;;;;;;;;10.00;99.90;;;;;;7334700;19;108971;-70
2023/12/17 07:42:36;;;;;;;;;;;10.00;99.90;;;;;;7330661;19;108688;-70
2023/12/17 07:45:04;;;;;;;;;;;9.90;99.90;;;;;;7335521;19;110467;-70
2023/12/17 07:47:32;;;;;;;;;;;10.00;99.90;;;;;;7333361;19;110692;-70
2023/12/17 07:50:00;;;;;;;;;;;9.90;99.90;;;;;;7327271;19;111366;-70
2023/12/17 07:52:27;;;;;;;;;;;9.90;99.90;;;;;;7328084;19;110336;-70
2023/12/17 07:54:54;;;;;;;;;;;9.90;99.90;;;;;;7328732;19;110160;-70
2023/12/17 07:57:21;;;;;;;;;;;9.90;99.90;;;;;;7327936;19;110197;-72
2023/12/17 07:59:48;;;;;;;;;;;9.90;99.90;;;;;;7331317;19;108712;-70
2023/12/17 08:02:16;;;;;;;;;;;9.90;99.90;;;;;;7332149;19;109388;-70
2023/12/17 08:04:44;;;;;;;;;;;9.90;99.90;;;;;;7338485;19;109928;-70
2023/12/17 08:07:11;;;;;;;;;;;9.80;99.90;;;;;;7336567;19;109344;-70
2023/12/17 08:09:39;;;;;;;;;;;9.80;99.90;;;;;;7338211;19;109253;-70
2023/12/17 08:12:07;;;;;;;;;;;9.90;99.90;;;;;;7339019;19;108738;-70
2023/12/17 08:14:35;;;;;;;;;;;9.90;99.90;;;;;;7333339;19;109309;-70
2023/12/17 08:17:02;;;;;;;;;;;9.90;99.90;;;;;;7337441;19;109643;-70
2023/12/17 08:19:29;;;;;;;;;;;9.80;99.90;;;;;;7339517;19;108539;-70
2023/12/17 08:21:56;;;;;;;;;;;9.80;99.90;;;;;;7339507;19;109371;-70
2023/12/17 08:24:24;;;;;;;;;;;9.80;99.90;;;;;;7344455;19;109230;-70
2023/12/17 08:26:54;;;;;;;;;;;9.80;99.90;;;;;;7343192;19;109454;-70
2023/12/17 08:29:22;;;;;;;;;;;9.80;99.90;;;;;;7336364;19;110433;-73
2023/12/17 08:31:49;;;;;;;;;;;9.80;99.90;;;;;;7339908;19;109076;-70
2023/12/17 08:34:16;;;;;;;;;;;9.80;99.90;;;;;;7339353;19;108824;-70
2023/12/17 08:36:44;;;;;;;;;;;9.80;99.90;;;;;;7333410;19;110397;-71
2023/12/17 08:39:14;;;;;;;;;;;9.80;99.90;;;;;;7339751;19;108849;-70
2023/12/17 08:41:41;;;;;;;;;;;9.80;99.90;;;;;;7335508;19;109940;-70
2023/12/17 08:44:08;;;;;;;;;;;9.70;99.90;;;;;;7338728;19;110248;-71
2023/12/17 08:46:43;;;;;;;;;;;9.80;99.90;;;;;;7340371;19;109507;-70
2023/12/17 08:49:10;;;;;;;;;;;9.80;99.90;;;;;;7336961;19;110209;-70
2023/12/17 08:51:40;;;;;;;;;;;9.80;99.90;;;;;;7338954;19;109656;-70
2023/12/17 08:54:12;;;;;;;;;;;9.80;99.90;;;;;;7334718;19;109395;-71
2023/12/17 08:56:40;;;;;;;;;;;9.80;99.90;;;;;;7333999;19;113470;-71
2023/12/17 08:59:08;;;;;;;;;;;9.80;99.90;;;;;;7340122;19;108610;-70
2023/12/17 09:01:36;;;;;;;;;;;9.90;99.90;;;;;;7331980;19;109176;-70
2023/12/17 09:04:03;;;;;;;;;;;9.90;99.90;;;;;;7340288;19;109330;-70
2023/12/17 09:06:31;;;;;;;;;;;9.90;99.90;;;;;;7332979;19;108758;-70
2023/12/17 09:08:58;;;;;;;;;;;9.90;99.90;;;;;;7340774;19;110223;-69
2023/12/17 09:11:25;;;;;;;;;;;9.90;99.90;;;;;;7335607;19;109034;-70
2023/12/17 09:13:52;;;;;;;;;;;9.90;99.90;;;;;;7339060;19;109173;-70
2023/12/17 09:16:19;;;;;;;;;;;9.90;99.90;;;;;;7332179;19;109089;-71
2023/12/17 09:18:47;;;;;;;;;;;9.90;99.90;;;;;;7337052;19;108454;-70
2023/12/17 09:21:14;;;;;;;;;;;10.00;99.90;;;;;;7333833;19;110558;-70
2023/12/17 09:23:42;;;;;;;;;;;10.00;99.90;;;;;;7338289;19;110108;-69
2023/12/17 09:26:09;;;;;;;;;;;9.90;99.90;;;;;;7338579;19;109732;-69
2023/12/17 09:28:36;;;;;;;;;;;9.90;99.90;;;;;;7336399;19;108729;-70
2023/12/17 09:31:08;;;;;;;;;;;9.90;99.90;;;;;;7342322;19;109894;-69
2023/12/17 09:33:36;;;;;;;;;;;9.90;99.90;;;;;;7336339;19;108731;-69
2023/12/17 09:36:05;;;;;;;;;;;9.90;99.90;;;;;;7331104;19;110324;-69
2023/12/17 09:38:33;;;;;;;;;;;9.90;99.90;;;;;;7331531;19;112677;-70
2023/12/17 09:41:00;;;;;;;;;;;9.90;99.90;;;;;;7333985;19;109072;-70
2023/12/17 09:43:27;;;;;;;;;;;10.00;99.90;;;;;;7330347;19;109434;-70
2023/12/17 09:45:55;;;;;;;;;;;10.00;99.90;;;;;;7331814;19;109378;-70
2023/12/17 09:48:23;;;;;;;;;;;10.10;99.90;;;;;;7330896;19;108686;-69
2023/12/17 09:50:51;;;;;;;;;;;10.10;99.90;;;;;;7331822;19;109132;-70
2023/12/17 09:53:18;;;;;;;;;;;10.20;99.90;;;;;;7339693;19;108919;-70
2023/12/17 09:55:45;;;;;;;;;;;10.20;99.90;;;;;;7334804;19;109330;-69
2023/12/17 09:58:12;;;;;;;;;;;10.20;99.90;;;;;;7335680;19;109210;-70
2023/12/17 10:00:42;;;;;;;;;;;10.30;99.90;;;;;;7334298;19;109464;-70
2023/12/17 10:03:13;;;;;;;;;;;10.20;99.90;;;;;;7335027;19;111056;-68
2023/12/17 10:05:40;;;;;;;;;;;10.20;99.90;;;;;;7334797;19;109559;-68
2023/12/17 10:08:08;;;;;;;;;;;10.20;99.90;;;;;;7335105;19;108685;-68
2023/12/17 10:10:35;;;;;;;;;;;10.20;99.90;;;;;;7339593;19;109116;-68
2023/12/17 10:13:03;;;;;;;;;;;10.10;99.90;;;;;;7340541;19;110302;-70
2023/12/17 10:15:36;;;;;;;;;;;10.10;99.90;;;;;;7336113;19;110339;-68
2023/12/17 10:18:04;;;;;;;;;;;10.00;99.90;;;;;;7334780;19;108729;-68
2023/12/17 10:20:31;;;;;;;;;;;10.00;99.90;;;;;;7335026;19;108803;-68
2023/12/17 10:22:59;;;;;;;;;;;10.00;99.90;;;;;;7330473;19;110481;-69
2023/12/17 10:25:27;;;;;;;;;;;10.00;99.90;;;;;;7334286;19;108948;-67
2023/12/17 10:27:57;;;;;;;;;;;10.00;99.90;;;;;;7330205;19;108962;-68
2023/12/17 10:30:26;;;;;;;;;;;10.10;99.90;;;;;;7336712;19;109163;-67
2023/12/17 10:32:54;;;;;;;;;;;10.00;99.90;;;;;;7334476;19;109231;-67
2023/12/17 10:35:23;;;;;;;;;;;10.00;99.90;;;;;;7338582;19;109784;-68
2023/12/17 10:37:53;;;;;;;;;;;10.00;99.90;;;;;;7335213;19;109594;-67
2023/12/17 10:40:20;;;;;;;;;;;10.00;99.90;;;;;;7332659;19;109439;-70
2023/12/17 10:42:48;;;;;;;;;;;10.00;99.90;;;;;;7333935;19;109858;-76
2023/12/17 10:45:18;;;;;;;;;;;10.10;99.90;;;;;;7330009;19;110954;-75
2023/12/17 10:47:47;;;;;;;;;;;10.10;99.90;;;;;;7336600;19;108696;-68
2023/12/17 10:50:15;;;;;;;;;;;10.10;99.90;;;;;;7331059;19;109142;-67
2023/12/17 10:55:34;;;;;;;;;;;10.20;99.90;;;;;;7373986;19;109798;-88
2023/12/17 10:58:04;;;;;;;;;;;10.30;99.90;;;;;;7369599;19;108327;-89
2023/12/17 11:00:32;;;;;;;;;;;10.30;99.90;;;;;;7352180;19;108320;-90
2023/12/17 11:03:01;;;;;;;;;;;10.30;99.90;;;;;;7340843;19;111029;-88
2023/12/17 11:05:28;;;;;;;;;;;10.30;99.90;;;;;;7340586;19;110503;-89
2023/12/17 11:07:55;;;;;;;;;;;10.30;99.90;;;;;;7337382;19;110722;-88
2023/12/17 11:10:26;;;;;;;;;;;10.30;99.90;;;;;;7338130;19;110661;-87
2023/12/17 11:12:54;;;;;;;;;;;10.40;99.90;;;;;;7339353;19;110354;-88
2023/12/17 11:15:22;;;;;;;;;;;10.40;99.90;;;;;;7337589;19;109553;-88
2023/12/17 11:17:53;;;;;;;;;;;10.40;99.90;;;;;;7333377;19;108592;-87
2023/12/17 11:20:21;;;;;;;;;;;10.50;99.90;;;;;;7342690;19;108348;-87
2023/12/17 11:22:52;;;;;;;;;;;10.50;99.90;;;;;;7332340;19;110617;-87
2023/12/17 11:25:28;;;;;;;;;;;10.60;99.90;;;;;;7335493;19;108786;-86
2023/12/17 11:27:55;;;;;;;;;;;10.60;99.90;;;;;;7333018;19;108760;-87
2023/12/17 11:30:32;;;;;;;;;;;10.60;99.90;;;;;;7338568;19;110481;-88
2023/12/17 11:33:01;;;;;;;;;;;10.60;99.90;;;;;;7333380;19;108969;-89
2023/12/17 11:35:29;;;;;;;;;;;10.60;99.90;;;;;;7335851;19;111280;-87
2023/12/17 11:37:56;;;;;;;;;;;10.70;99.90;;;;;;7337681;19;110192;-88
2023/12/17 11:40:24;;;;;;;;;;;10.70;99.90;;;;;;7349891;19;108664;-88
2023/12/17 11:43:02;;;;;;;;;;;10.70;99.90;;;;;;7352826;19;109487;-88
2023/12/17 11:45:30;;;;;;;;;;;10.70;99.90;;;;;;7345545;19;108711;-87
2023/12/17 11:48:03;;;;;;;;;;;10.80;99.90;;;;;;7346762;19;112151;-88
2023/12/17 11:50:45;;;;;;;;;;;10.80;99.90;;;;;;7348424;19;113608;-88
2023/12/17 11:53:13;;;;;;;;;;;10.80;99.90;;;;;;7348458;19;108595;-87
2023/12/17 11:55:41;;;;;;;;;;;10.90;99.90;;;;;;7349687;19;109834;-88
2023/12/17 11:58:08;;;;;;;;;;;10.90;99.90;;;;;;7348259;19;110079;-88
2023/12/17 12:00:35;;;;;;;;;;;10.90;99.90;;;;;;7348006;19;108467;-89
2023/12/17 12:03:04;;;;;;;;;;;10.90;99.90;;;;;;7356317;19;109326;-88
2023/12/17 12:05:32;;;;;;;;;;;10.90;99.90;;;;;;7352259;19;108726;-88
2023/12/17 12:07:59;;;;;;;;;;;10.90;99.90;;;;;;7345482;19;111193;-88
2023/12/17 12:10:27;;;;;;;;;;;11.00;99.90;;;;;;7350251;19;110942;-88
2023/12/17 12:13:04;;;;;;;;;;;11.00;99.90;;;;;;7351605;19;108300;-89
2023/12/17 12:15:32;;;;;;;;;;;11.10;99.90;;;;;;7349669;19;110038;-88
2023/12/17 12:17:59;;;;;;;;;;;11.10;99.90;;;;;;7348577;19;110645;-88
2023/12/17 12:20:37;;;;;;;;;;;11.20;99.90;;;;;;7352190;19;108692;-88
2023/12/17 12:23:08;;;;;;;;;;;11.30;99.90;;;;;;7344055;19;109986;-88
2023/12/17 12:25:37;;;;;;;;;;;11.40;99.90;;;;;;7354718;19;110610;-87
2023/12/17 12:28:18;;;;;;;;;;;11.40;99.90;;;;;;7345116;19;109558;-88
2023/12/17 12:30:50;;;;;;;;;;;11.40;99.90;;;;;;7334248;19;111062;-88
2023/12/17 12:33:18;;;;;;;;;;;11.40;99.90;;;;;;7331255;19;109734;-88
2023/12/17 12:35:48;;;;;;;;;;;11.50;99.90;;;;;;7336732;19;108748;-90
2023/12/17 12:38:22;;;;;;;;;;;11.50;99.90;;;;;;7334296;19;110879;-89
2023/12/17 12:40:50;;;;;;;;;;;11.60;99.90;;;;;;7345072;19;108947;-88
2023/12/17 12:43:20;;;;;;;;;;;11.50;99.90;;;;;;7338965;19;111152;-88
2023/12/17 12:45:51;;;;;;;;;;;11.50;99.90;;;;;;7343781;19;110647;-88
2023/12/17 12:48:18;;;;;;;;;;;11.40;99.90;;;;;;7349901;19;109089;-88
2023/12/17 12:50:46;;;;;;;;;;;11.40;99.90;;;;;;7335911;19;110378;-87
2023/12/17 12:53:20;;;;;;;;;;;11.40;99.90;;;;;;7337904;19;108829;-88
2023/12/17 12:55:52;;;;;;;;;;;11.40;99.90;;;;;;7327392;19;109903;-89
2023/12/17 12:58:20;;;;;;;;;;;11.40;99.90;;;;;;7336376;19;110484;-89
2023/12/17 13:00:49;;;;;;;;;;;11.50;99.90;;;;;;7335122;19;108988;-88
2023/12/17 13:03:18;;;;;;;;;;;11.50;99.90;;;;;;7335843;19;109227;-87
2023/12/17 13:05:45;;;;;;;;;;;11.50;99.90;;;;;;7335057;19;112910;-88
2023/12/17 13:08:13;;;;;;;;;;;11.50;99.90;;;;;;7338762;19;108819;-88
2023/12/17 13:10:40;;;;;;;;;;;11.60;99.90;;;;;;7344766;19;109760;-87
2023/12/17 13:13:07;;;;;;;;;;;11.70;99.90;;;;;;7337266;19;108932;-87
2023/12/17 13:15:34;;;;;;;;;;;11.70;99.90;;;;;;7334080;19;109614;-88
2023/12/17 13:18:02;;;;;;;;;;;11.70;99.90;;;;;;7336395;19;112206;-88
2023/12/17 13:20:30;;;;;;;;;;;11.70;99.90;;;;;;7339185;19;109062;-86
2023/12/17 13:22:57;;;;;;;;;;;11.80;99.90;;;;;;7341982;19;109487;-86
2023/12/17 13:25:24;;;;;;;;;;;11.80;99.90;;;;;;7343914;19;108779;-85
2023/12/17 13:27:52;;;;;;;;;;;11.80;99.90;;;;;;7341214;19;108394;-88
2023/12/17 13:30:19;;;;;;;;;;;11.80;99.90;;;;;;7342172;19;109605;-86
2023/12/17 13:32:47;;;;;;;;;;;11.80;99.90;;;;;;7349258;19;109170;-86
2023/12/17 13:35:18;;;;;;;;;;;11.80;99.90;;;;;;7346602;19;108563;-88
2023/12/17 13:37:45;;;;;;;;;;;11.70;99.90;;;;;;7346723;19;110234;-87
2023/12/17 13:40:14;;;;;;;;;;;11.70;99.90;;;;;;7345483;19;108760;-88
2023/12/17 13:42:41;;;;;;;;;;;11.70;99.90;;;;;;7342785;19;112604;-85
2023/12/17 13:45:08;;;;;;;;;;;11.70;99.90;;;;;;7343529;19;109171;-87
2023/12/17 13:47:36;;;;;;;;;;;11.70;99.90;;;;;;7344173;19;109913;-86
2023/12/17 13:50:03;;;;;;;;;;;11.80;99.90;;;;;;7341811;19;111814;-86
2023/12/17 13:52:32;;;;;;;;;;;11.80;99.90;;;;;;7338900;19;113075;-86
2023/12/17 13:55:00;;;;;;;;;;;11.90;99.90;;;;;;7349092;19;108490;-87
2023/12/17 13:57:28;;;;;;;;;;;11.90;99.90;;;;;;7341289;19;110751;-88
2023/12/17 13:59:56;;;;;;;;;;;12.00;99.90;;;;;;7337412;19;109237;-87
2023/12/17 14:02:25;;;;;;;;;;;12.00;99.90;;;;;;7340638;19;109103;-88
2023/12/17 14:04:52;;;;;;;;;;;12.00;99.90;;;;;;7341171;19;110421;-88
2023/12/17 14:07:20;;;;;;;;;;;12.10;99.90;;;;;;7338563;19;108904;-86
2023/12/17 14:09:47;;;;;;;;;;;12.10;99.90;;;;;;7342856;19;109115;-87
2023/12/17 14:12:14;;;;;;;;;;;12.00;99.90;;;;;;7339415;19;110876;-87
2023/12/17 14:14:42;;;;;;;;;;;12.10;99.90;;;;;;7345389;19;108618;-87
2023/12/17 14:17:09;;;;;;;;;;;12.00;99.90;;;;;;7339341;19;110406;-88
2023/12/17 14:19:38;;;;;;;;;;;11.90;99.90;;;;;;7338325;19;108519;-88
2023/12/17 14:22:05;;;;;;;;;;;11.90;99.90;;;;;;7341432;19;109799;-87
2023/12/17 14:24:32;;;;;;;;;;;11.80;99.90;;;;;;7337574;19;109228;-86
2023/12/17 14:27:00;;;;;;;;;;;11.70;99.90;;;;;;7341297;19;108366;-87
2023/12/17 14:29:27;;;;;;;;;;;11.80;99.90;;;;;;7337624;19;108964;-87
2023/12/17 14:32:02;;;;;;;;;;;11.70;99.90;;;;;;7341405;19;109444;-87
2023/12/17 14:34:33;;;;;;;;;;;11.70;99.90;;;;;;7335945;19;109563;-87